sensor_id;sensor_type;location;lat;lon;timestamp;temperature;humidity
11246;DHT22;59870;50.106;8.580;2023-12-22T00:02:26;10.10;96.20
11246;DHT22;59870;50.106;8.580;2023-12-22T00:04:56;9.90;96.70
11246;DHT22;59870;50.106;8.580;2023-12-22T00:07:25;9.90;96.70
11246;DHT22;59870;50.106;8.580;2023-12-22T00:09:59;10.10;96.50
11246;DHT22;59870;50.106;8.580;2023-12-22T00:12:26;9.80;97.10
11246;DHT22;59870;50.106;8.580;2023-12-22T00:14:55;9.90;97.00
11246;DHT22;59870;50.106;8.580;2023-12-22T00:17:22;9.80;97.10
11246;DHT22;59870;50.106;8.580;2023-12-22T00:19:50;10.00;96.80
11246;DHT22;59870;50.106;8.580;2023-12-22T00:22:18;9.90;97.40
11246;DHT22;59870;50.106;8.580;2023-12-22T00:24:47;10.00;97.20
11246;DHT22;59870;50.106;8.580;2023-12-22T00:27:19;9.90;97.60
11246;DHT22;59870;50.106;8.580;2023-12-22T00:29:48;9.40;97.60
11246;DHT22;59870;50.106;8.580;2023-12-22T00:32:22;9.70;97.60
11246;DHT22;59870;50.106;8.580;2023-12-22T00:34:50;9.90;97.50
11246;DHT22;59870;50.106;8.580;2023-12-22T00:37:21;9.80;97.50
11246;DHT22;59870;50.106;8.580;2023-12-22T00:39:53;9.90;98.00
11246;DHT22;59870;50.106;8.580;2023-12-22T00:42:24;9.80;97.80
11246;DHT22;59870;50.106;8.580;2023-12-22T00:44:55;9.80;97.90
11246;DHT22;59870;50.106;8.580;2023-12-22T00:47:26;9.80;97.90
11246;DHT22;59870;50.106;8.580;2023-12-22T00:53:19;9.80;97.80
11246;DHT22;59870;50.106;8.580;2023-12-22T00:55:52;9.80;97.70
11246;DHT22;59870;50.106;8.580;2023-12-22T00:58:21;10.10;97.40
11246;DHT22;59870;50.106;8.580;2023-12-22T01:01:17;10.10;97.50
11246;DHT22;59870;50.106;8.580;2023-12-22T01:03:50;9.90;97.80
11246;DHT22;59870;50.106;8.580;2023-12-22T01:06:24;9.90;97.70
11246;DHT22;59870;50.106;8.580;2023-12-22T01:09:04;9.90;97.60
11246;DHT22;59870;50.106;8.580;2023-12-22T01:11:36;9.90;97.60
11246;DHT22;59870;50.106;8.580;2023-12-22T01:14:09;10.20;97.30
11246;DHT22;59870;50.106;8.580;2023-12-22T01:16:52;10.00;97.20
11246;DHT22;59870;50.106;8.580;2023-12-22T01:19:24;10.00;96.90
11246;DHT22;59870;50.106;8.580;2023-12-22T01:21:57;10.00;97.10
11246;DHT22;59870;50.106;8.580;2023-12-22T01:24:32;10.30;97.20
11246;DHT22;59870;50.106;8.580;2023-12-22T01:27:01;9.80;97.40
11246;DHT22;59870;50.106;8.580;2023-12-22T01:29:34;10.20;96.80
11246;DHT22;59870;50.106;8.580;2023-12-22T01:32:03;10.30;97.00
11246;DHT22;59870;50.106;8.580;2023-12-22T01:34:31;10.10;97.10
11246;DHT22;59870;50.106;8.580;2023-12-22T01:36:59;10.10;97.30
11246;DHT22;59870;50.106;8.580;2023-12-22T01:39:27;10.10;97.10
11246;DHT22;59870;50.106;8.580;2023-12-22T01:41:55;10.30;97.30
11246;DHT22;59870;50.106;8.580;2023-12-22T01:44:23;10.10;97.00
11246;DHT22;59870;50.106;8.580;2023-12-22T01:46:51;10.10;96.90
11246;DHT22;59870;50.106;8.580;2023-12-22T01:49:21;10.20;96.30
11246;DHT22;59870;50.106;8.580;2023-12-22T01:51:50;10.00;95.90
11246;DHT22;59870;50.106;8.580;2023-12-22T01:54:18;9.70;96.50
11246;DHT22;59870;50.106;8.580;2023-12-22T01:56:46;9.90;96.20
11246;DHT22;59870;50.106;8.580;2023-12-22T01:59:14;9.90;96.30
11246;DHT22;59870;50.106;8.580;2023-12-22T02:01:42;9.80;96.30
11246;DHT22;59870;50.106;8.580;2023-12-22T02:04:15;10.00;96.00
11246;DHT22;59870;50.106;8.580;2023-12-22T02:06:43;9.80;96.40
11246;DHT22;59870;50.106;8.580;2023-12-22T02:09:11;9.70;96.40
11246;DHT22;59870;50.106;8.580;2023-12-22T02:11:39;9.70;96.10
11246;DHT22;59870;50.106;8.580;2023-12-22T02:14:07;9.60;96.00
11246;DHT22;59870;50.106;8.580;2023-12-22T02:16:46;9.70;96.00
11246;DHT22;59870;50.106;8.580;2023-12-22T02:19:26;9.70;96.00
11246;DHT22;59870;50.106;8.580;2023-12-22T02:22:10;9.60;95.90
11246;DHT22;59870;50.106;8.580;2023-12-22T02:24:48;9.40;95.90
11246;DHT22;59870;50.106;8.580;2023-12-22T02:27:45;9.30;96.20
11246;DHT22;59870;50.106;8.580;2023-12-22T02:30:49;9.20;96.40
11246;DHT22;59870;50.106;8.580;2023-12-22T02:33:22;9.20;96.50
11246;DHT22;59870;50.106;8.580;2023-12-22T02:35:51;9.20;96.80
11246;DHT22;59870;50.106;8.580;2023-12-22T02:38:20;9.20;96.70
11246;DHT22;59870;50.106;8.580;2023-12-22T02:40:48;9.20;96.70
11246;DHT22;59870;50.106;8.580;2023-12-22T02:43:15;9.20;97.10
11246;DHT22;59870;50.106;8.580;2023-12-22T02:45:43;9.20;97.30
11246;DHT22;59870;50.106;8.580;2023-12-22T02:48:11;8.90;97.20
11246;DHT22;59870;50.106;8.580;2023-12-22T02:50:39;9.20;97.30
11246;DHT22;59870;50.106;8.580;2023-12-22T02:53:31;9.30;97.40
11246;DHT22;59870;50.106;8.580;2023-12-22T02:55:59;9.30;97.40
11246;DHT22;59870;50.106;8.580;2023-12-22T02:58:28;9.50;97.50
11246;DHT22;59870;50.106;8.580;2023-12-22T03:00:58;9.50;97.50
11246;DHT22;59870;50.106;8.580;2023-12-22T03:03:30;9.30;97.30
11246;DHT22;59870;50.106;8.580;2023-12-22T03:06:12;9.30;97.30
11246;DHT22;59870;50.106;8.580;2023-12-22T03:08:53;9.50;97.50
11246;DHT22;59870;50.106;8.580;2023-12-22T03:11:41;9.30;97.40
11246;DHT22;59870;50.106;8.580;2023-12-22T03:14:23;9.30;97.50
11246;DHT22;59870;50.106;8.580;2023-12-22T03:17:01;9.40;97.60
11246;DHT22;59870;50.106;8.580;2023-12-22T03:19:39;9.60;97.80
11246;DHT22;59870;50.106;8.580;2023-12-22T03:22:19;9.40;97.70
11246;DHT22;59870;50.106;8.580;2023-12-22T03:25:03;9.50;97.80
11246;DHT22;59870;50.106;8.580;2023-12-22T03:27:39;9.40;97.90
11246;DHT22;59870;50.106;8.580;2023-12-22T03:30:08;9.40;97.80
11246;DHT22;59870;50.106;8.580;2023-12-22T03:32:35;9.50;98.10
11246;DHT22;59870;50.106;8.580;2023-12-22T03:35:03;9.50;98.10
11246;DHT22;59870;50.106;8.580;2023-12-22T03:37:33;9.50;98.30
11246;DHT22;59870;50.106;8.580;2023-12-22T03:40:19;9.50;98.10
11246;DHT22;59870;50.106;8.580;2023-12-22T03:43:06;9.60;98.20
11246;DHT22;59870;50.106;8.580;2023-12-22T03:45:52;9.60;98.20
11246;DHT22;59870;50.106;8.580;2023-12-22T03:48:24;9.60;98.30
11246;DHT22;59870;50.106;8.580;2023-12-22T03:51:00;9.60;98.30
11246;DHT22;59870;50.106;8.580;2023-12-22T03:53:28;9.80;98.60
11246;DHT22;59870;50.106;8.580;2023-12-22T03:55:57;9.60;98.50
11246;DHT22;59870;50.106;8.580;2023-12-22T03:58:28;9.90;98.40
11246;DHT22;59870;50.106;8.580;2023-12-22T04:01:25;9.90;98.40
11246;DHT22;59870;50.106;8.580;2023-12-22T04:04:11;9.60;98.20
11246;DHT22;59870;50.106;8.580;2023-12-22T04:10:12;9.70;98.20
11246;DHT22;59870;50.106;8.580;2023-12-22T04:12:46;9.60;98.00
11246;DHT22;59870;50.106;8.580;2023-12-22T04:15:22;9.80;98.00
11246;DHT22;59870;50.106;8.580;2023-12-22T04:17:55;9.60;98.00
11246;DHT22;59870;50.106;8.580;2023-12-22T04:20:37;9.60;97.60
11246;DHT22;59870;50.106;8.580;2023-12-22T04:23:16;9.70;97.60
11246;DHT22;59870;50.106;8.580;2023-12-22T04:25:55;9.90;97.50
11246;DHT22;59870;50.106;8.580;2023-12-22T04:28:45;10.00;96.90
11246;DHT22;59870;50.106;8.580;2023-12-22T04:31:35;9.80;97.10
11246;DHT22;59870;50.106;8.580;2023-12-22T04:34:08;9.80;97.00
11246;DHT22;59870;50.106;8.580;2023-12-22T04:36:40;9.90;97.20
11246;DHT22;59870;50.106;8.580;2023-12-22T04:39:20;10.10;96.70
11246;DHT22;59870;50.106;8.580;2023-12-22T04:41:56;10.10;96.70
11246;DHT22;59870;50.106;8.580;2023-12-22T04:44:37;9.90;97.00
11246;DHT22;59870;50.106;8.580;2023-12-22T04:47:11;10.00;96.30
11246;DHT22;59870;50.106;8.580;2023-12-22T04:49:42;10.10;96.70
11246;DHT22;59870;50.106;8.580;2023-12-22T04:52:13;9.90;97.30
11246;DHT22;59870;50.106;8.580;2023-12-22T04:54:41;10.30;96.80
11246;DHT22;59870;50.106;8.580;2023-12-22T04:57:11;9.90;97.30
11246;DHT22;59870;50.106;8.580;2023-12-22T04:59:43;10.00;97.10
11246;DHT22;59870;50.106;8.580;2023-12-22T05:02:10;10.00;97.00
11246;DHT22;59870;50.106;8.580;2023-12-22T05:04:38;10.00;97.10
11246;DHT22;59870;50.106;8.580;2023-12-22T05:07:06;10.00;96.90
11246;DHT22;59870;50.106;8.580;2023-12-22T05:09:37;10.00;97.10
11246;DHT22;59870;50.106;8.580;2023-12-22T05:12:08;10.10;97.00
11246;DHT22;59870;50.106;8.580;2023-12-22T05:14:36;10.10;96.80
11246;DHT22;59870;50.106;8.580;2023-12-22T05:17:04;9.90;96.80
11246;DHT22;59870;50.106;8.580;2023-12-22T05:19:35;10.20;96.50
11246;DHT22;59870;50.106;8.580;2023-12-22T05:22:02;10.10;96.70
11246;DHT22;59870;50.106;8.580;2023-12-22T05:24:30;10.10;96.40
11246;DHT22;59870;50.106;8.580;2023-12-22T05:26:58;10.10;96.50
11246;DHT22;59870;50.106;8.580;2023-12-22T05:29:31;10.10;96.50
11246;DHT22;59870;50.106;8.580;2023-12-22T05:32:03;10.10;96.60
11246;DHT22;59870;50.106;8.580;2023-12-22T05:34:34;10.30;96.70
11246;DHT22;59870;50.106;8.580;2023-12-22T05:37:07;10.30;96.80
11246;DHT22;59870;50.106;8.580;2023-12-22T05:39:34;10.10;96.60
11246;DHT22;59870;50.106;8.580;2023-12-22T05:42:03;10.20;96.50
11246;DHT22;59870;50.106;8.580;2023-12-22T05:44:31;10.20;96.50
11246;DHT22;59870;50.106;8.580;2023-12-22T05:47:05;10.20;96.30
11246;DHT22;59870;50.106;8.580;2023-12-22T05:49:35;10.20;96.50
11246;DHT22;59870;50.106;8.580;2023-12-22T05:52:03;10.30;96.40
11246;DHT22;59870;50.106;8.580;2023-12-22T05:54:34;10.30;96.10
11246;DHT22;59870;50.106;8.580;2023-12-22T05:57:10;10.30;96.00
11246;DHT22;59870;50.106;8.580;2023-12-22T05:59:43;10.30;95.90
11246;DHT22;59870;50.106;8.580;2023-12-22T06:02:10;10.40;95.70
11246;DHT22;59870;50.106;8.580;2023-12-22T06:04:38;10.40;95.70
11246;DHT22;59870;50.106;8.580;2023-12-22T06:07:06;10.40;95.40
11246;DHT22;59870;50.106;8.580;2023-12-22T06:09:34;10.60;95.50
11246;DHT22;59870;50.106;8.580;2023-12-22T06:12:03;10.20;95.10
11246;DHT22;59870;50.106;8.580;2023-12-22T06:14:39;10.40;95.10
11246;DHT22;59870;50.106;8.580;2023-12-22T06:17:08;10.50;95.20
11246;DHT22;59870;50.106;8.580;2023-12-22T06:19:36;10.50;95.30
11246;DHT22;59870;50.106;8.580;2023-12-22T06:22:08;10.50;95.10
11246;DHT22;59870;50.106;8.580;2023-12-22T06:24:52;10.70;95.20
11246;DHT22;59870;50.106;8.580;2023-12-22T06:27:23;10.50;95.00
11246;DHT22;59870;50.106;8.580;2023-12-22T06:29:51;10.70;95.10
11246;DHT22;59870;50.106;8.580;2023-12-22T06:32:28;10.80;95.20
11246;DHT22;59870;50.106;8.580;2023-12-22T06:34:56;10.50;95.00
11246;DHT22;59870;50.106;8.580;2023-12-22T06:37:24;10.80;95.00
11246;DHT22;59870;50.106;8.580;2023-12-22T06:39:52;10.50;94.80
11246;DHT22;59870;50.106;8.580;2023-12-22T06:42:21;10.80;94.90
11246;DHT22;59870;50.106;8.580;2023-12-22T06:44:54;10.80;94.90
11246;DHT22;59870;50.106;8.580;2023-12-22T06:47:22;10.80;94.90
11246;DHT22;59870;50.106;8.580;2023-12-22T06:50:02;10.60;94.80
11246;DHT22;59870;50.106;8.580;2023-12-22T06:52:31;10.60;94.80
11246;DHT22;59870;50.106;8.580;2023-12-22T06:55:00;10.80;94.80
11246;DHT22;59870;50.106;8.580;2023-12-22T06:57:29;10.90;94.80
11246;DHT22;59870;50.106;8.580;2023-12-22T07:00:00;10.70;94.60
11246;DHT22;59870;50.106;8.580;2023-12-22T07:02:46;10.90;94.70
11246;DHT22;59870;50.106;8.580;2023-12-22T07:07:52;10.60;94.40
11246;DHT22;59870;50.106;8.580;2023-12-22T07:10:20;10.70;94.20
11246;DHT22;59870;50.106;8.580;2023-12-22T07:12:48;10.60;94.20
11246;DHT22;59870;50.106;8.580;2023-12-22T07:15:16;10.70;94.20
11246;DHT22;59870;50.106;8.580;2023-12-22T07:17:46;10.70;94.10
11246;DHT22;59870;50.106;8.580;2023-12-22T07:20:15;11.00;93.90
11246;DHT22;59870;50.106;8.580;2023-12-22T07:22:44;10.90;94.00
11246;DHT22;59870;50.106;8.580;2023-12-22T07:25:13;10.80;94.10
11246;DHT22;59870;50.106;8.580;2023-12-22T07:27:42;10.80;93.90
11246;DHT22;59870;50.106;8.580;2023-12-22T07:30:09;10.80;94.00
11246;DHT22;59870;50.106;8.580;2023-12-22T07:32:39;10.90;93.90
11246;DHT22;59870;50.106;8.580;2023-12-22T07:35:08;10.90;93.90
11246;DHT22;59870;50.106;8.580;2023-12-22T07:37:36;11.00;94.00
11246;DHT22;59870;50.106;8.580;2023-12-22T07:40:06;11.00;93.80
11246;DHT22;59870;50.106;8.580;2023-12-22T07:42:35;11.10;93.90
11246;DHT22;59870;50.106;8.580;2023-12-22T07:45:02;11.10;93.70
11246;DHT22;59870;50.106;8.580;2023-12-22T07:47:31;11.10;93.70
11246;DHT22;59870;50.106;8.580;2023-12-22T07:50:00;11.10;94.10
11246;DHT22;59870;50.106;8.580;2023-12-22T07:52:30;11.20;94.30
11246;DHT22;59870;50.106;8.580;2023-12-22T07:54:58;11.10;94.20
11246;DHT22;59870;50.106;8.580;2023-12-22T07:57:25;11.20;94.30
11246;DHT22;59870;50.106;8.580;2023-12-22T07:59:52;11.20;94.60
11246;DHT22;59870;50.106;8.580;2023-12-22T08:02:20;11.20;94.40
11246;DHT22;59870;50.106;8.580;2023-12-22T08:04:47;11.20;94.70
11246;DHT22;59870;50.106;8.580;2023-12-22T08:07:16;11.20;94.60
11246;DHT22;59870;50.106;8.580;2023-12-22T08:09:43;11.30;94.10
11246;DHT22;59870;50.106;8.580;2023-12-22T08:12:11;11.30;94.40
11246;DHT22;59870;50.106;8.580;2023-12-22T08:14:38;11.30;94.40
11246;DHT22;59870;50.106;8.580;2023-12-22T08:17:06;11.30;94.50
11246;DHT22;59870;50.106;8.580;2023-12-22T08:19:36;11.30;94.50
11246;DHT22;59870;50.106;8.580;2023-12-22T08:22:05;11.30;94.60
11246;DHT22;59870;50.106;8.580;2023-12-22T08:24:35;11.40;94.60
11246;DHT22;59870;50.106;8.580;2023-12-22T08:27:02;11.40;94.70
11246;DHT22;59870;50.106;8.580;2023-12-22T08:29:30;11.40;94.40
11246;DHT22;59870;50.106;8.580;2023-12-22T08:32:00;11.50;94.50
11246;DHT22;59870;50.106;8.580;2023-12-22T08:34:28;11.60;94.60
11246;DHT22;59870;50.106;8.580;2023-12-22T08:36:56;11.50;94.60
11246;DHT22;59870;50.106;8.580;2023-12-22T08:39:23;11.60;94.40
11246;DHT22;59870;50.106;8.580;2023-12-22T08:41:52;11.60;94.30
11246;DHT22;59870;50.106;8.580;2023-12-22T08:44:20;11.60;94.30
11246;DHT22;59870;50.106;8.580;2023-12-22T08:46:48;11.60;94.10
11246;DHT22;59870;50.106;8.580;2023-12-22T08:49:16;11.50;94.20
11246;DHT22;59870;50.106;8.580;2023-12-22T08:51:43;11.50;94.70
11246;DHT22;59870;50.106;8.580;2023-12-22T08:54:11;11.50;94.40
11246;DHT22;59870;50.106;8.580;2023-12-22T08:56:38;11.40;94.40
11246;DHT22;59870;50.106;8.580;2023-12-22T08:59:06;11.40;94.60
11246;DHT22;59870;50.106;8.580;2023-12-22T09:01:36;11.30;94.80
11246;DHT22;59870;50.106;8.580;2023-12-22T09:04:04;11.60;95.20
11246;DHT22;59870;50.106;8.580;2023-12-22T09:06:34;11.40;94.90
11246;DHT22;59870;50.106;8.580;2023-12-22T09:09:02;11.60;95.20
11246;DHT22;59870;50.106;8.580;2023-12-22T09:11:31;11.40;95.20
11246;DHT22;59870;50.106;8.580;2023-12-22T09:13:58;11.40;95.20
11246;DHT22;59870;50.106;8.580;2023-12-22T09:16:26;11.40;95.20
11246;DHT22;59870;50.106;8.580;2023-12-22T09:18:55;11.40;95.10
11246;DHT22;59870;50.106;8.580;2023-12-22T09:21:23;11.40;94.90
11246;DHT22;59870;50.106;8.580;2023-12-22T09:23:51;11.50;95.20
11246;DHT22;59870;50.106;8.580;2023-12-22T09:26:18;11.50;95.60
11246;DHT22;59870;50.106;8.580;2023-12-22T09:28:46;11.70;95.50
11246;DHT22;59870;50.106;8.580;2023-12-22T09:31:14;11.70;95.60
11246;DHT22;59870;50.106;8.580;2023-12-22T09:33:42;11.50;95.50
11246;DHT22;59870;50.106;8.580;2023-12-22T09:36:11;11.50;95.60
11246;DHT22;59870;50.106;8.580;2023-12-22T09:38:39;11.70;96.00
11246;DHT22;59870;50.106;8.580;2023-12-22T09:41:07;11.50;95.80
11246;DHT22;59870;50.106;8.580;2023-12-22T09:43:35;11.40;95.80
11246;DHT22;59870;50.106;8.580;2023-12-22T09:46:06;11.40;96.10
11246;DHT22;59870;50.106;8.580;2023-12-22T09:48:36;11.40;96.10
11246;DHT22;59870;50.106;8.580;2023-12-22T09:51:07;11.40;96.20
11246;DHT22;59870;50.106;8.580;2023-12-22T09:53:38;11.60;96.40
11246;DHT22;59870;50.106;8.580;2023-12-22T09:56:07;11.70;96.30
11246;DHT22;59870;50.106;8.580;2023-12-22T09:58:37;11.50;96.30
11246;DHT22;59870;50.106;8.580;2023-12-22T10:01:08;11.50;96.60
11246;DHT22;59870;50.106;8.580;2023-12-22T10:03:37;11.70;96.80
11246;DHT22;59870;50.106;8.580;2023-12-22T10:06:05;11.80;96.40
11246;DHT22;59870;50.106;8.580;2023-12-22T10:08:33;11.80;96.50
11246;DHT22;59870;50.106;8.580;2023-12-22T10:14:12;11.60;96.70
11246;DHT22;59870;50.106;8.580;2023-12-22T10:16:42;11.90;96.70
11246;DHT22;59870;50.106;8.580;2023-12-22T10:19:11;11.90;96.80
11246;DHT22;59870;50.106;8.580;2023-12-22T10:21:39;11.90;96.90
11246;DHT22;59870;50.106;8.580;2023-12-22T10:24:06;11.70;96.70
11246;DHT22;59870;50.106;8.580;2023-12-22T10:26:34;11.80;96.90
11246;DHT22;59870;50.106;8.580;2023-12-22T10:29:04;11.80;96.90
11246;DHT22;59870;50.106;8.580;2023-12-22T10:31:40;11.80;97.10
11246;DHT22;59870;50.106;8.580;2023-12-22T10:34:08;12.00;97.20
11246;DHT22;59870;50.106;8.580;2023-12-22T10:36:37;11.80;97.20
11246;DHT22;59870;50.106;8.580;2023-12-22T10:39:05;12.00;97.40
11246;DHT22;59870;50.106;8.580;2023-12-22T10:41:33;12.10;97.40
11246;DHT22;59870;50.106;8.580;2023-12-22T10:44:02;11.80;97.40
11246;DHT22;59870;50.106;8.580;2023-12-22T10:46:33;12.00;97.50
11246;DHT22;59870;50.106;8.580;2023-12-22T10:49:02;11.90;97.80
11246;DHT22;59870;50.106;8.580;2023-12-22T10:51:31;11.90;97.70
11246;DHT22;59870;50.106;8.580;2023-12-22T10:54:00;12.10;97.60
11246;DHT22;59870;50.106;8.580;2023-12-22T10:56:28;12.00;97.50
11246;DHT22;59870;50.106;8.580;2023-12-22T10:58:56;12.30;97.80
11246;DHT22;59870;50.106;8.580;2023-12-22T11:01:30;12.00;97.50
11246;DHT22;59870;50.106;8.580;2023-12-22T11:04:00;12.00;97.50
11246;DHT22;59870;50.106;8.580;2023-12-22T11:06:30;12.30;97.60
11246;DHT22;59870;50.106;8.580;2023-12-22T11:09:00;12.10;97.40
11246;DHT22;59870;50.106;8.580;2023-12-22T11:11:33;12.10;97.40
11246;DHT22;59870;50.106;8.580;2023-12-22T11:14:01;12.20;97.30
11246;DHT22;59870;50.106;8.580;2023-12-22T11:16:30;12.20;97.20
11246;DHT22;59870;50.106;8.580;2023-12-22T11:18:59;12.30;97.30
11246;DHT22;59870;50.106;8.580;2023-12-22T11:21:29;12.30;97.10
11246;DHT22;59870;50.106;8.580;2023-12-22T11:23:57;12.30;96.90
11246;DHT22;59870;50.106;8.580;2023-12-22T11:26:26;12.60;97.10
11246;DHT22;59870;50.106;8.580;2023-12-22T11:28:53;12.30;97.10
11246;DHT22;59870;50.106;8.580;2023-12-22T11:31:23;12.80;97.20
11246;DHT22;59870;50.106;8.580;2023-12-22T11:33:54;12.40;96.90
11246;DHT22;59870;50.106;8.580;2023-12-22T11:36:38;12.50;97.00
11246;DHT22;59870;50.106;8.580;2023-12-22T11:39:06;12.50;96.70
11246;DHT22;59870;50.106;8.580;2023-12-22T11:41:38;12.70;96.80
11246;DHT22;59870;50.106;8.580;2023-12-22T11:44:09;12.30;96.70
11246;DHT22;59870;50.106;8.580;2023-12-22T11:46:38;12.60;97.00
11246;DHT22;59870;50.106;8.580;2023-12-22T11:49:06;12.60;97.10
11246;DHT22;59870;50.106;8.580;2023-12-22T11:51:34;12.60;97.10
11246;DHT22;59870;50.106;8.580;2023-12-22T11:54:02;12.60;97.20
11246;DHT22;59870;50.106;8.580;2023-12-22T11:56:30;12.60;97.20
11246;DHT22;59870;50.106;8.580;2023-12-22T11:58:59;12.70;97.30
11246;DHT22;59870;50.106;8.580;2023-12-22T12:01:30;12.70;97.30
11246;DHT22;59870;50.106;8.580;2023-12-22T12:04:03;12.90;97.70
11246;DHT22;59870;50.106;8.580;2023-12-22T12:06:33;12.70;98.10
11246;DHT22;59870;50.106;8.580;2023-12-22T12:09:05;12.80;97.80
11246;DHT22;59870;50.106;8.580;2023-12-22T12:14:23;12.80;98.00
11246;DHT22;59870;50.106;8.580;2023-12-22T12:17:03;12.70;97.90
11246;DHT22;59870;50.106;8.580;2023-12-22T12:19:45;12.70;97.90
11246;DHT22;59870;50.106;8.580;2023-12-22T12:22:18;12.90;97.70
11246;DHT22;59870;50.106;8.580;2023-12-22T12:24:52;12.90;97.60
11246;DHT22;59870;50.106;8.580;2023-12-22T12:27:21;12.70;97.50
11246;DHT22;59870;50.106;8.580;2023-12-22T12:29:50;12.90;97.50
11246;DHT22;59870;50.106;8.580;2023-12-22T12:32:18;12.70;97.50
11246;DHT22;59870;50.106;8.580;2023-12-22T12:34:46;12.60;97.50
11246;DHT22;59870;50.106;8.580;2023-12-22T12:37:16;12.80;97.50
11246;DHT22;59870;50.106;8.580;2023-12-22T12:39:51;12.70;97.30
11246;DHT22;59870;50.106;8.580;2023-12-22T12:42:22;12.70;97.50
11246;DHT22;59870;50.106;8.580;2023-12-22T12:44:51;12.70;97.20
11246;DHT22;59870;50.106;8.580;2023-12-22T12:47:25;12.90;97.40
11246;DHT22;59870;50.106;8.580;2023-12-22T12:50:07;13.00;97.40
11246;DHT22;59870;50.106;8.580;2023-12-22T12:52:57;12.80;97.10
11246;DHT22;59870;50.106;8.580;2023-12-22T12:55:28;13.00;97.50
11246;DHT22;59870;50.106;8.580;2023-12-22T12:57:56;13.00;97.50
11246;DHT22;59870;50.106;8.580;2023-12-22T13:00:27;12.80;97.50
11246;DHT22;59870;50.106;8.580;2023-12-22T13:03:05;12.80;97.80
11246;DHT22;59870;50.106;8.580;2023-12-22T13:05:35;13.00;97.90
11246;DHT22;59870;50.106;8.580;2023-12-22T13:08:12;12.80;98.20
11246;DHT22;59870;50.106;8.580;2023-12-22T13:10:40;12.80;98.60
11246;DHT22;59870;50.106;8.580;2023-12-22T13:13:09;13.00;98.80
11246;DHT22;59870;50.106;8.580;2023-12-22T13:15:40;12.80;99.00
11246;DHT22;59870;50.106;8.580;2023-12-22T13:18:09;12.70;99.20
11246;DHT22;59870;50.106;8.580;2023-12-22T13:20:37;13.00;99.40
11246;DHT22;59870;50.106;8.580;2023-12-22T13:23:05;13.00;99.40
11246;DHT22;59870;50.106;8.580;2023-12-22T13:25:40;12.80;99.20
11246;DHT22;59870;50.106;8.580;2023-12-22T13:28:12;13.00;99.40
11246;DHT22;59870;50.106;8.580;2023-12-22T13:30:40;12.80;99.20
11246;DHT22;59870;50.106;8.580;2023-12-22T13:33:16;12.90;99.30
11246;DHT22;59870;50.106;8.580;2023-12-22T13:36:00;13.10;99.40
11246;DHT22;59870;50.106;8.580;2023-12-22T13:44:56;12.80;99.70
11246;DHT22;59870;50.106;8.580;2023-12-22T13:47:23;12.90;99.80
11246;DHT22;59870;50.106;8.580;2023-12-22T13:49:55;12.80;99.70
11246;DHT22;59870;50.106;8.580;2023-12-22T13:52:30;13.10;99.80
11246;DHT22;59870;50.106;8.580;2023-12-22T13:55:10;12.90;99.60
11246;DHT22;59870;50.106;8.580;2023-12-22T13:57:38;13.00;99.60
11246;DHT22;59870;50.106;8.580;2023-12-22T14:02:47;13.10;99.70
11246;DHT22;59870;50.106;8.580;2023-12-22T14:05:17;12.90;99.50
11246;DHT22;59870;50.106;8.580;2023-12-22T14:07:45;13.00;99.60
11246;DHT22;59870;50.106;8.580;2023-12-22T14:10:14;13.30;99.70
11246;DHT22;59870;50.106;8.580;2023-12-22T14:12:42;13.20;99.50
11246;DHT22;59870;50.106;8.580;2023-12-22T14:15:10;13.30;99.40
11246;DHT22;59870;50.106;8.580;2023-12-22T14:17:39;13.10;99.20
11246;DHT22;59870;50.106;8.580;2023-12-22T14:20:07;13.00;99.10
11246;DHT22;59870;50.106;8.580;2023-12-22T14:22:41;13.10;99.00
11246;DHT22;59870;50.106;8.580;2023-12-22T14:25:09;13.10;99.10
11246;DHT22;59870;50.106;8.580;2023-12-22T14:27:37;13.10;98.90
11246;DHT22;59870;50.106;8.580;2023-12-22T14:30:05;13.10;99.00
11246;DHT22;59870;50.106;8.580;2023-12-22T14:32:33;13.20;98.80
11246;DHT22;59870;50.106;8.580;2023-12-22T14:35:01;13.40;98.80
11246;DHT22;59870;50.106;8.580;2023-12-22T14:37:33;13.20;98.60
11246;DHT22;59870;50.106;8.580;2023-12-22T14:40:04;13.40;98.90
11246;DHT22;59870;50.106;8.580;2023-12-22T14:42:47;13.20;98.60
11246;DHT22;59870;50.106;8.580;2023-12-22T14:45:16;13.40;98.60
11246;DHT22;59870;50.106;8.580;2023-12-22T14:47:43;13.30;98.60
11246;DHT22;59870;50.106;8.580;2023-12-22T14:50:11;13.30;98.50
11246;DHT22;59870;50.106;8.580;2023-12-22T14:52:38;13.30;98.50
11246;DHT22;59870;50.106;8.580;2023-12-22T14:55:07;13.30;98.50
11246;DHT22;59870;50.106;8.580;2023-12-22T14:57:35;13.40;98.20
11246;DHT22;59870;50.106;8.580;2023-12-22T15:00:04;13.60;98.30
11246;DHT22;59870;50.106;8.580;2023-12-22T15:02:32;13.40;98.20
11246;DHT22;59870;50.106;8.580;2023-12-22T15:05:00;13.60;98.20
11246;DHT22;59870;50.106;8.580;2023-12-22T15:07:28;13.40;98.00
11246;DHT22;59870;50.106;8.580;2023-12-22T15:09:56;13.40;98.10
11246;DHT22;59870;50.106;8.580;2023-12-22T15:15:54;13.40;98.00
11246;DHT22;59870;50.106;8.580;2023-12-22T15:18:23;13.70;97.80
11246;DHT22;59870;50.106;8.580;2023-12-22T15:20:52;13.60;97.40
11246;DHT22;59870;50.106;8.580;2023-12-22T15:23:21;13.50;97.40
11246;DHT22;59870;50.106;8.580;2023-12-22T15:25:49;13.70;97.50
11246;DHT22;59870;50.106;8.580;2023-12-22T15:28:25;13.50;97.30
11246;DHT22;59870;50.106;8.580;2023-12-22T15:33:39;13.50;97.20
11246;DHT22;59870;50.106;8.580;2023-12-22T15:36:09;13.70;97.10
11246;DHT22;59870;50.106;8.580;2023-12-22T15:38:38;13.70;97.00
11246;DHT22;59870;50.106;8.580;2023-12-22T15:41:06;13.50;96.80
11246;DHT22;59870;50.106;8.580;2023-12-22T15:43:34;13.50;96.70
11246;DHT22;59870;50.106;8.580;2023-12-22T15:46:08;13.50;96.70
11246;DHT22;59870;50.106;8.580;2023-12-22T15:48:38;13.70;96.60
11246;DHT22;59870;50.106;8.580;2023-12-22T15:51:11;13.50;96.60
11246;DHT22;59870;50.106;8.580;2023-12-22T15:53:42;13.60;96.50
11246;DHT22;59870;50.106;8.580;2023-12-22T15:56:10;13.60;96.70
11246;DHT22;59870;50.106;8.580;2023-12-22T15:58:39;13.60;96.70
11246;DHT22;59870;50.106;8.580;2023-12-22T16:01:11;13.80;96.80
11246;DHT22;59870;50.106;8.580;2023-12-22T16:03:40;13.80;96.90
11246;DHT22;59870;50.106;8.580;2023-12-22T16:06:09;13.70;96.90
11246;DHT22;59870;50.106;8.580;2023-12-22T16:08:37;13.70;96.80
11246;DHT22;59870;50.106;8.580;2023-12-22T16:11:35;13.70;96.60
11246;DHT22;59870;50.106;8.580;2023-12-22T16:14:13;13.60;96.60
11246;DHT22;59870;50.106;8.580;2023-12-22T16:36:11;13.70;96.30
11246;DHT22;59870;50.106;8.580;2023-12-22T16:38:40;13.90;96.60
11246;DHT22;59870;50.106;8.580;2023-12-22T16:41:10;13.70;96.50
11246;DHT22;59870;50.106;8.580;2023-12-22T16:43:43;13.80;96.70
11246;DHT22;59870;50.106;8.580;2023-12-22T16:46:24;13.70;96.60
11246;DHT22;59870;50.106;8.580;2023-12-22T16:48:53;13.50;96.60
11246;DHT22;59870;50.106;8.580;2023-12-22T16:51:21;13.70;97.00